Nehalem, Oregon
Current Conditions -  °F | °C
As of 9:35 PM on Saturday 25 Oct 2014 (Local Time) from KTMK Reporting Station
Scattered Clouds Scattered Clouds  
Wind Chill: 55°   Ceiling: Unl
Heat Index: 55°   Visibility: 10mi
Dew Point: 46°   Wind: 6mph
Humidity: 72%   Direction: 240°WSW
Pressure: 29.86"   Gusts: NA
Location:  45.72°N, 123.89°W
Report Text: KTMK 260435Z AUTO 24005KT 10SM SCT032 SCT048 SCT065 13/08 A2986 RMK AO2
Loading
Personal Weather Stations






























Interactive Weather Map
Tropical Storm Tracking
New forecast layout! Learn more

10-Day Weather Forecast

Advertisements
Track Severe Weather on mobile